createdAt,value
2018-08-06T00:01:18.763Z,3.00
2018-08-06T00:03:50.558Z,3.25
2018-08-06T00:06:21.769Z,3.00
2018-08-06T00:08:52.248Z,3.00
2018-08-06T00:11:25.275Z,4.50
2018-08-06T00:13:58.173Z,3.25
2018-08-06T00:16:28.764Z,4.00
2018-08-06T00:18:59.319Z,4.00
2018-08-06T00:21:31.603Z,4.00
2018-08-06T00:24:03.101Z,4.00
2018-08-06T00:26:34.264Z,4.00
2018-08-06T00:29:07.831Z,3.00
2018-08-06T00:31:41.405Z,3.00
2018-08-06T00:34:12.320Z,4.00
2018-08-06T00:36:42.659Z,4.00
2018-08-06T00:39:13.650Z,4.00
2018-08-06T00:41:44.683Z,4.25
2018-08-06T00:44:15.532Z,4.00
2018-08-06T00:46:46.123Z,4.00
2018-08-06T00:49:17.229Z,5.00
2018-08-06T00:51:48.161Z,4.00
2018-08-06T00:54:20.059Z,5.00
2018-08-06T00:56:50.427Z,4.00
2018-08-06T00:59:21.558Z,4.50
2018-08-06T01:01:52.931Z,4.00
2018-08-06T01:04:23.925Z,5.00
2018-08-06T01:06:55.325Z,5.00
2018-08-06T01:09:25.921Z,5.00
2018-08-06T01:11:56.163Z,5.25
2018-08-06T01:14:26.990Z,5.00
2018-08-06T01:16:58.559Z,5.00
2018-08-06T01:19:29.984Z,4.00
2018-08-06T01:22:01.531Z,5.00
2018-08-06T01:24:32.306Z,5.25
2018-08-06T01:27:03.672Z,5.00
2018-08-06T01:29:35.860Z,5.25
2018-08-06T01:32:07.195Z,5.75
2018-08-06T01:34:37.930Z,5.50
2018-08-06T01:37:08.236Z,5.25
2018-08-06T01:39:39.056Z,5.00
2018-08-06T01:42:09.999Z,5.00
2018-08-06T01:44:40.850Z,4.75
2018-08-06T01:47:12.304Z,5.75
2018-08-06T01:49:43.638Z,6.00
2018-08-06T01:52:14.254Z,5.00
2018-08-06T01:54:45.056Z,5.50
2018-08-06T01:57:15.787Z,5.00
2018-08-06T01:59:48.887Z,5.00
2018-08-06T02:02:20.209Z,5.75
2018-08-06T02:04:51.431Z,5.00
2018-08-06T02:07:21.810Z,6.00
2018-08-06T02:09:52.036Z,5.00
2018-08-06T02:12:22.206Z,5.00
2018-08-06T02:14:53.344Z,5.00
2018-08-06T02:17:24.372Z,6.50
2018-08-06T02:19:55.796Z,6.00
2018-08-06T02:22:26.196Z,6.00
2018-08-06T02:24:56.440Z,5.00
2018-08-06T02:27:26.681Z,5.25
2018-08-06T02:29:57.345Z,6.25
2018-08-06T02:32:29.970Z,6.00
2018-08-06T02:35:00.423Z,5.75
2018-08-06T02:37:31.744Z,5.25
2018-08-06T02:40:04.179Z,5.75
2018-08-06T02:42:35.112Z,6.00
2018-08-06T02:45:08.146Z,5.50
2018-08-06T02:47:38.875Z,5.00
2018-08-06T02:50:10.360Z,5.25
2018-08-06T02:52:41.720Z,6.25
2018-08-06T02:55:14.341Z,5.00
2018-08-06T02:57:44.468Z,5.75
2018-08-06T03:00:17.977Z,5.75
2018-08-06T03:02:48.684Z,5.00
2018-08-06T03:05:19.926Z,6.25
2018-08-06T03:07:50.696Z,5.00
2018-08-06T03:10:21.091Z,6.25
2018-08-06T03:12:51.982Z,5.50
2018-08-06T03:15:22.325Z,6.00
2018-08-06T03:17:52.457Z,5.25
2018-08-06T03:20:22.860Z,6.00
2018-08-06T03:22:52.994Z,6.00
2018-08-06T03:25:23.784Z,5.75
2018-08-06T03:27:54.200Z,6.00
2018-08-06T03:30:25.949Z,5.50
2018-08-06T03:32:56.169Z,6.00
2018-08-06T03:35:26.687Z,5.50
2018-08-06T03:37:57.352Z,6.00
2018-08-06T03:40:28.041Z,6.00
2018-08-06T03:42:58.729Z,5.00
2018-08-06T03:45:30.233Z,6.00
2018-08-06T03:48:00.367Z,5.50
2018-08-06T03:50:30.885Z,5.75
2018-08-06T03:53:01.417Z,6.00
2018-08-06T03:55:31.823Z,6.00
2018-08-06T03:58:02.610Z,6.25
2018-08-06T04:00:33.040Z,6.00
2018-08-06T04:03:04.106Z,6.50
2018-08-06T04:05:34.680Z,6.75
2018-08-06T04:08:05.059Z,7.00
2018-08-06T04:10:35.309Z,6.75
2018-08-06T04:13:05.521Z,6.50
2018-08-06T04:15:35.808Z,6.00
2018-08-06T04:18:06.429Z,7.00
2018-08-06T04:20:47.893Z,5.50
2018-08-06T04:23:18.184Z,6.50
2018-08-06T04:25:48.601Z,5.00
2018-08-06T04:28:20.204Z,5.25
2018-08-06T04:30:50.994Z,6.00
2018-08-06T04:33:21.081Z,5.75
2018-08-06T04:35:51.846Z,5.75
2018-08-06T04:38:33.145Z,5.50
2018-08-06T04:41:03.923Z,5.50
2018-08-06T04:43:33.997Z,6.00
2018-08-06T04:46:04.840Z,6.25
2018-08-06T04:48:35.384Z,6.75
2018-08-06T04:51:07.543Z,8.00
2018-08-06T04:53:39.093Z,7.25
2018-08-06T04:56:09.409Z,6.75
2018-08-06T04:58:42.667Z,6.25
2018-08-06T05:01:17.456Z,7.00
2018-08-06T05:03:55.604Z,6.75
2018-08-06T05:06:26.265Z,5.00
2018-08-06T05:08:56.472Z,6.00
2018-08-06T05:11:27.138Z,6.00
2018-08-06T05:13:59.529Z,6.25
2018-08-06T05:16:32.316Z,7.00
2018-08-06T05:19:02.419Z,6.25
2018-08-06T05:21:32.858Z,6.75
2018-08-06T05:24:03.997Z,7.00
2018-08-06T05:26:35.093Z,7.00
2018-08-06T05:29:05.556Z,6.00
2018-08-06T05:31:36.012Z,6.50
2018-08-06T05:34:07.349Z,6.75
2018-08-06T05:36:38.004Z,7.25
2018-08-06T05:39:09.451Z,6.00
2018-08-06T05:41:39.692Z,6.00
2018-08-06T05:44:11.394Z,6.00
2018-08-06T05:46:42.263Z,6.00
2018-08-06T05:49:12.397Z,6.00
2018-08-06T05:51:45.030Z,5.00
2018-08-06T05:54:16.057Z,5.50
2018-08-06T05:56:58.278Z,6.00
2018-08-06T05:59:28.347Z,5.00
2018-08-06T06:01:59.806Z,6.00
2018-08-06T06:04:31.377Z,5.75
2018-08-06T06:07:02.638Z,5.50
2018-08-06T06:09:33.285Z,5.75
2018-08-06T06:12:03.884Z,5.75
2018-08-06T06:14:35.275Z,4.75
2018-08-06T06:17:08.219Z,5.75
2018-08-06T06:19:44.106Z,4.75
2018-08-06T06:22:15.173Z,4.00
2018-08-06T06:24:49.466Z,4.00
2018-08-06T06:27:29.872Z,4.50
2018-08-06T06:30:00.351Z,5.25
2018-08-06T06:32:33.578Z,4.25
2018-08-06T06:35:05.630Z,3.50
2018-08-06T06:37:36.624Z,4.75
2018-08-06T06:40:18.072Z,5.75
2018-08-06T06:42:49.072Z,5.00
2018-08-06T06:45:20.371Z,3.75
2018-08-06T06:47:51.244Z,4.00
2018-08-06T06:50:21.753Z,3.00
2018-08-06T06:55:43.635Z,4.00
2018-08-06T06:58:16.223Z,3.00
2018-08-06T07:00:51.638Z,4.25
2018-08-06T07:03:22.865Z,3.75
2018-08-06T07:05:53.789Z,3.00
2018-08-06T07:08:26.345Z,4.00
2018-08-06T07:10:57.585Z,3.00
2018-08-06T07:13:28.804Z,3.25
2018-08-06T07:16:05.414Z,3.00
2018-08-06T07:18:37.504Z,3.00
2018-08-06T07:21:09.822Z,2.25
2018-08-06T07:23:44.512Z,3.00
2018-08-06T07:26:15.644Z,3.00
2018-08-06T07:28:46.487Z,4.00
2018-08-06T07:31:18.661Z,3.00
2018-08-06T07:33:51.908Z,4.00
2018-08-06T07:36:23.005Z,2.50
2018-08-06T07:38:53.448Z,2.75
2018-08-06T07:41:25.781Z,3.00
2018-08-06T07:43:57.140Z,3.50
2018-08-06T07:46:34.779Z,3.00
2018-08-06T07:49:09.430Z,3.25
2018-08-06T07:51:41.159Z,3.00
2018-08-06T07:54:12.187Z,4.00
2018-08-06T07:56:45.992Z,3.00
2018-08-06T07:59:18.402Z,3.00
2018-08-06T08:01:51.954Z,3.75
2018-08-06T08:04:34.759Z,3.75
2018-08-06T08:07:05.942Z,3.00
2018-08-06T08:09:37.865Z,3.00
2018-08-06T08:12:08.763Z,3.50
2018-08-06T08:14:38.998Z,3.00
2018-08-06T08:17:10.352Z,4.25
2018-08-06T08:19:42.075Z,3.00
2018-08-06T08:22:12.443Z,3.00
2018-08-06T08:24:44.177Z,4.00
2018-08-06T08:27:16.759Z,3.75
2018-08-06T08:29:48.313Z,4.25
2018-08-06T08:32:20.746Z,4.00
2018-08-06T08:34:52.378Z,3.25
2018-08-06T08:37:24.417Z,3.75
2018-08-06T08:39:56.883Z,3.50
2018-08-06T08:42:39.280Z,4.00
2018-08-06T08:45:15.530Z,4.00
2018-08-06T08:47:47.388Z,3.75
2018-08-06T08:50:19.720Z,3.00
2018-08-06T08:52:55.653Z,4.00
2018-08-06T08:55:27.158Z,3.25
2018-08-06T08:58:00.014Z,4.00
2018-08-06T09:00:46.277Z,3.75
2018-08-06T09:03:19.718Z,2.50
2018-08-06T09:05:51.981Z,3.00
2018-08-06T09:08:22.420Z,4.00
2018-08-06T09:10:53.557Z,3.00
2018-08-06T09:13:25.183Z,3.25
2018-08-06T09:15:58.076Z,3.25
2018-08-06T09:18:30.173Z,4.75
2018-08-06T09:21:00.449Z,3.25
2018-08-06T09:23:32.467Z,4.00
2018-08-06T09:26:04.663Z,4.00
2018-08-06T09:28:36.845Z,4.00
2018-08-06T09:31:08.218Z,4.25
2018-08-06T09:33:39.501Z,4.00
2018-08-06T09:36:09.916Z,3.75
2018-08-06T09:38:46.209Z,4.00
2018-08-06T09:41:17.426Z,3.75
2018-08-06T09:43:50.903Z,3.50
2018-08-06T09:46:24.505Z,3.50
2018-08-06T09:48:56.792Z,4.50
2018-08-06T09:51:29.386Z,4.75
2018-08-06T09:54:04.857Z,3.75
2018-08-06T09:56:35.314Z,4.75
2018-08-06T09:59:10.264Z,4.50
2018-08-06T10:01:46.465Z,5.00
2018-08-06T10:04:18.584Z,3.75
2018-08-06T10:06:54.728Z,5.00
2018-08-06T10:09:31.349Z,5.00
2018-08-06T10:12:08.184Z,4.00
2018-08-06T10:14:42.257Z,4.00
2018-08-06T10:17:14.378Z,4.50
2018-08-06T10:19:45.640Z,4.00
2018-08-06T10:22:19.212Z,4.50
2018-08-06T10:24:52.185Z,4.50
2018-08-06T10:27:26.092Z,5.00
2018-08-06T10:29:56.525Z,3.75
2018-08-06T10:32:28.939Z,6.00
2018-08-06T10:35:06.991Z,4.00
2018-08-06T10:37:52.755Z,6.00
2018-08-06T10:40:26.656Z,4.50
2018-08-06T10:42:58.440Z,4.25
2018-08-06T10:45:31.116Z,5.25
2018-08-06T10:48:03.594Z,4.75
2018-08-06T10:50:38.187Z,4.75
2018-08-06T10:53:09.594Z,4.00
2018-08-06T10:55:41.794Z,4.75
2018-08-06T10:58:14.773Z,3.50
2018-08-06T11:00:45.464Z,5.00
2018-08-06T11:03:16.486Z,4.75
2018-08-06T11:05:48.769Z,4.75
2018-08-06T11:08:22.584Z,5.00
2018-08-06T11:10:58.803Z,6.50
2018-08-06T11:13:32.839Z,5.00
2018-08-06T11:16:11.546Z,5.00
2018-08-06T11:18:44.130Z,4.25
2018-08-06T11:21:16.711Z,4.00
2018-08-06T11:23:48.936Z,5.00
2018-08-06T11:26:23.269Z,5.50
2018-08-06T11:28:56.648Z,4.00
2018-08-06T11:31:35.206Z,4.00
2018-08-06T11:34:08.614Z,6.25
2018-08-06T11:36:40.512Z,4.50
2018-08-06T11:39:13.208Z,5.75
2018-08-06T11:41:46.468Z,5.25
2018-08-06T11:44:19.283Z,5.00
2018-08-06T11:46:50.489Z,4.25
2018-08-06T11:49:21.471Z,4.50
2018-08-06T11:51:52.320Z,5.75
2018-08-06T11:54:24.677Z,5.25
2018-08-06T11:56:55.066Z,4.50
2018-08-06T11:59:33.313Z,5.00
2018-08-06T12:02:22.753Z,5.50
2018-08-06T12:04:57.014Z,4.50
2018-08-06T12:07:30.010Z,4.50
2018-08-06T12:10:11.425Z,5.00
2018-08-06T12:12:45.030Z,4.75
2018-08-06T12:15:20.455Z,4.75
2018-08-06T12:17:56.902Z,5.00
2018-08-06T12:20:29.061Z,4.75
2018-08-06T12:23:02.310Z,4.00
2018-08-06T12:25:34.114Z,5.25
2018-08-06T12:28:08.543Z,4.75
2018-08-06T12:30:40.661Z,5.00
2018-08-06T12:33:12.432Z,4.00
2018-08-06T12:35:49.358Z,5.00
2018-08-06T12:38:38.620Z,5.00
2018-08-06T12:41:33.169Z,4.50
2018-08-06T12:44:13.277Z,4.00
2018-08-06T12:46:46.246Z,5.00
2018-08-06T12:49:20.791Z,5.00
2018-08-06T12:51:58.599Z,4.75
2018-08-06T12:54:32.311Z,4.00
2018-08-06T12:57:04.015Z,4.00
2018-08-06T12:59:35.477Z,5.00
2018-08-06T13:02:06.086Z,3.50
2018-08-06T13:04:38.367Z,5.25
2018-08-06T13:07:09.643Z,5.25
2018-08-06T13:09:42.648Z,4.00
2018-08-06T13:12:19.693Z,4.75
2018-08-06T13:14:50.883Z,4.25
2018-08-06T13:17:31.962Z,4.00
2018-08-06T13:20:03.375Z,4.00
2018-08-06T13:22:42.609Z,5.00
2018-08-06T13:25:27.743Z,4.00
2018-08-06T13:27:59.966Z,4.25
2018-08-06T13:30:35.040Z,4.00
2018-08-06T13:33:08.714Z,4.25
2018-08-06T13:35:43.349Z,4.25
2018-08-06T13:38:15.044Z,4.00
2018-08-06T13:40:52.002Z,5.00
2018-08-06T13:43:28.738Z,5.00
2018-08-06T13:46:05.879Z,4.75
2018-08-06T13:48:46.326Z,3.75
2018-08-06T13:51:24.796Z,4.50
2018-08-06T13:54:01.958Z,4.00
2018-08-06T13:56:33.160Z,4.00
2018-08-06T13:59:06.146Z,4.00
2018-08-06T14:01:40.406Z,4.50
2018-08-06T14:04:14.738Z,4.00
2018-08-06T14:06:45.308Z,4.00
2018-08-06T14:09:18.837Z,4.75
2018-08-06T14:14:25.764Z,3.00
2018-08-06T14:16:59.432Z,4.00
2018-08-06T14:19:44.493Z,3.00
2018-08-06T14:24:57.954Z,4.75
2018-08-06T14:27:32.392Z,4.00
2018-08-06T14:30:06.815Z,4.00
2018-08-06T14:32:41.680Z,3.75
2018-08-06T14:35:15.426Z,4.25
2018-08-06T14:37:51.483Z,4.00
2018-08-06T14:40:28.280Z,4.25
2018-08-06T14:43:02.754Z,4.25
2018-08-06T14:45:37.571Z,5.75
2018-08-06T14:48:07.941Z,4.50
2018-08-06T14:50:42.482Z,3.75
2018-08-06T14:53:12.736Z,4.00
2018-08-06T14:55:49.738Z,4.00
2018-08-06T14:58:22.306Z,4.50
2018-08-06T15:00:54.703Z,4.75
2018-08-06T15:03:32.765Z,4.00
2018-08-06T15:06:04.819Z,5.00
2018-08-06T15:08:37.266Z,4.00
2018-08-06T15:11:18.132Z,4.00
2018-08-06T15:13:52.193Z,4.00
2018-08-06T15:16:23.836Z,5.00
2018-08-06T15:18:58.105Z,4.00
2018-08-06T15:21:33.425Z,4.25
2018-08-06T15:24:07.697Z,4.25
2018-08-06T15:26:38.478Z,4.00
2018-08-06T15:29:13.169Z,4.25
2018-08-06T15:31:44.528Z,5.75
2018-08-06T15:34:16.033Z,4.75
2018-08-06T15:36:49.079Z,4.25
2018-08-06T15:41:57.047Z,5.00
2018-08-06T15:44:27.561Z,4.25
2018-08-06T15:47:02.161Z,5.75
2018-08-06T15:49:38.149Z,5.00
2018-08-06T15:52:14.070Z,5.00
2018-08-06T15:54:49.445Z,4.50
2018-08-06T15:57:22.886Z,5.00
2018-08-06T15:59:55.831Z,4.00
2018-08-06T16:02:29.152Z,4.25
2018-08-06T16:05:00.157Z,5.00
2018-08-06T16:07:30.628Z,4.00
2018-08-06T16:10:06.501Z,4.75
2018-08-06T16:12:37.283Z,4.00
2018-08-06T16:15:19.903Z,4.25
2018-08-06T16:17:59.642Z,5.00
2018-08-06T16:20:32.841Z,4.25
2018-08-06T16:23:03.881Z,4.00
2018-08-06T16:25:34.468Z,4.75
2018-08-06T16:28:06.693Z,5.00
2018-08-06T16:30:38.409Z,5.00
2018-08-06T16:33:09.600Z,5.00
2018-08-06T16:35:42.416Z,5.00
2018-08-06T16:38:16.408Z,5.00
2018-08-06T16:40:48.649Z,5.00
2018-08-06T16:43:20.574Z,4.50
2018-08-06T16:45:51.640Z,5.25
2018-08-06T16:48:26.637Z,5.00
2018-08-06T16:53:46.269Z,4.75
2018-08-06T16:56:18.948Z,5.00
2018-08-06T16:58:49.679Z,5.00
2018-08-06T17:01:21.806Z,5.00
2018-08-06T17:03:53.503Z,5.00
2018-08-06T17:06:26.403Z,5.00
2018-08-06T17:09:14.569Z,4.00
2018-08-06T17:12:03.494Z,4.75
2018-08-06T17:14:35.348Z,5.00
2018-08-06T17:17:09.898Z,5.00
2018-08-06T17:19:47.299Z,5.00
2018-08-06T17:22:27.611Z,5.00
2018-08-06T17:25:00.360Z,4.25
2018-08-06T17:32:59.731Z,5.00
2018-08-06T17:35:33.054Z,5.00
2018-08-06T17:38:05.999Z,5.25
2018-08-06T17:40:39.078Z,4.00
2018-08-06T17:43:11.268Z,5.00
2018-08-06T17:45:42.198Z,4.50
2018-08-06T17:48:16.736Z,5.75
2018-08-06T17:53:01.813Z,5.25
2018-08-06T17:55:34.199Z,5.50
2018-08-06T17:58:07.922Z,5.00
2018-08-06T18:00:41.778Z,5.00
2018-08-06T18:03:16.542Z,5.00
2018-08-06T18:05:51.288Z,5.75
2018-08-06T18:08:24.922Z,5.00
2018-08-06T18:10:56.646Z,5.75
2018-08-06T18:13:36.691Z,5.00
2018-08-06T18:18:49.664Z,5.25
2018-08-06T18:21:22.996Z,5.00
2018-08-06T18:23:55.310Z,5.25
2018-08-06T18:26:28.406Z,5.00
2018-08-06T18:29:10.498Z,6.00
2018-08-06T18:31:41.122Z,4.00
2018-08-06T18:34:11.807Z,5.00
2018-08-06T18:36:44.568Z,4.50
2018-08-06T18:39:14.755Z,5.25
2018-08-06T18:41:45.250Z,5.50
2018-08-06T18:44:15.480Z,5.00
2018-08-06T18:46:52.153Z,5.00
2018-08-06T18:49:31.944Z,4.25
2018-08-06T18:52:03.211Z,4.75
2018-08-06T18:54:36.014Z,6.00
2018-08-06T18:57:08.464Z,5.50
2018-08-06T18:59:49.867Z,5.00
2018-08-06T19:02:21.194Z,6.00
2018-08-06T19:04:52.734Z,5.25
2018-08-06T19:07:27.619Z,7.00
2018-08-06T19:09:59.424Z,6.00
2018-08-06T19:12:35.612Z,5.00
2018-08-06T19:15:10.223Z,4.00
2018-08-06T19:17:49.282Z,6.00
2018-08-06T19:20:23.435Z,6.00
2018-08-06T19:22:54.278Z,6.50
2018-08-06T19:25:30.244Z,5.75
2018-08-06T19:28:02.825Z,5.25
2018-08-06T19:30:38.296Z,7.25
2018-08-06T19:33:10.580Z,6.50
2018-08-06T19:35:41.958Z,6.50
2018-08-06T19:38:14.294Z,6.00
2018-08-06T19:40:44.982Z,8.00
2018-08-06T19:43:20.275Z,6.75
2018-08-06T19:45:54.003Z,8.25
2018-08-06T19:48:25.537Z,8.00
2018-08-06T19:51:01.414Z,8.00
2018-08-06T19:53:33.049Z,7.00
2018-08-06T19:56:09.189Z,8.00
2018-08-06T19:58:42.622Z,8.00
2018-08-06T20:01:15.732Z,6.25
2018-08-06T20:03:49.917Z,6.00
2018-08-06T20:06:20.910Z,7.00
2018-08-06T20:08:52.928Z,6.00
2018-08-06T20:11:25.712Z,7.75
2018-08-06T20:13:56.969Z,7.25
2018-08-06T20:16:28.644Z,7.50
2018-08-06T20:19:03.385Z,7.00
2018-08-06T20:21:40.485Z,6.00
2018-08-06T20:24:14.495Z,7.75
2018-08-06T20:26:45.924Z,7.50
2018-08-06T20:29:17.869Z,6.00
2018-08-06T20:31:48.266Z,6.75
2018-08-06T20:34:20.042Z,6.25
2018-08-06T20:36:52.608Z,5.75
2018-08-06T20:39:24.688Z,7.75
2018-08-06T20:41:55.280Z,6.75
2018-08-06T20:44:25.753Z,6.00
2018-08-06T20:46:57.458Z,6.00
2018-08-06T20:49:27.775Z,6.00
2018-08-06T20:52:00.386Z,7.00
2018-08-06T20:54:34.402Z,7.00
2018-08-06T20:57:05.419Z,8.00
2018-08-06T20:59:36.579Z,7.00
2018-08-06T21:02:08.717Z,6.00
2018-08-06T21:04:44.365Z,6.00
2018-08-06T21:07:15.064Z,7.00
2018-08-06T21:09:48.246Z,6.00
2018-08-06T21:12:19.578Z,6.50
2018-08-06T21:14:50.256Z,6.00
2018-08-06T21:17:22.732Z,7.25
2018-08-06T21:19:57.572Z,7.00
2018-08-06T21:22:30.615Z,7.75
2018-08-06T21:25:07.233Z,6.50
2018-08-06T21:27:41.557Z,6.00
2018-08-06T21:30:19.749Z,7.00
2018-08-06T21:32:54.219Z,7.25
2018-08-06T21:35:27.189Z,6.00
2018-08-06T21:38:01.829Z,6.75
2018-08-06T21:40:32.332Z,5.50
2018-08-06T21:43:02.487Z,6.00
2018-08-06T21:45:33.013Z,5.00
2018-08-06T21:48:03.821Z,6.50
2018-08-06T21:50:34.223Z,7.00
2018-08-06T21:53:04.456Z,5.75
2018-08-06T21:55:35.083Z,7.00
2018-08-06T21:58:05.819Z,6.00
2018-08-06T22:00:38.331Z,6.00
2018-08-06T22:03:19.889Z,5.50
2018-08-06T22:05:55.095Z,6.00
2018-08-06T22:08:26.331Z,6.00
2018-08-06T22:11:00.271Z,6.25
2018-08-06T22:13:31.216Z,6.00
2018-08-06T22:16:03.342Z,6.25
2018-08-06T22:18:34.025Z,5.25
2018-08-06T22:21:05.254Z,6.00
2018-08-06T22:29:39.662Z,7.00
2018-08-06T22:32:14.857Z,7.00
2018-08-06T22:34:46.679Z,7.00
2018-08-06T22:37:18.480Z,7.00
2018-08-06T22:39:50.120Z,6.00
2018-08-06T22:42:20.515Z,6.00
2018-08-06T22:44:51.432Z,6.50
2018-08-06T22:47:23.043Z,6.25
2018-08-06T22:49:55.656Z,6.25
2018-08-06T22:52:26.723Z,5.25
2018-08-06T22:54:58.261Z,6.00
2018-08-06T22:57:29.569Z,6.00
2018-08-06T23:00:00.929Z,6.00
2018-08-06T23:02:34.034Z,6.00
2018-08-06T23:05:05.831Z,6.50
2018-08-06T23:07:37.321Z,5.25
2018-08-06T23:10:11.254Z,6.25
2018-08-06T23:12:42.662Z,5.50
2018-08-06T23:15:16.918Z,6.00
2018-08-06T23:17:48.775Z,6.25
2018-08-06T23:20:19.016Z,6.00
2018-08-06T23:22:52.007Z,6.00
2018-08-06T23:25:27.456Z,5.25
2018-08-06T23:27:58.721Z,6.50
2018-08-06T23:30:29.601Z,5.00
2018-08-06T23:32:59.795Z,5.00
2018-08-06T23:35:29.964Z,5.50
2018-08-06T23:38:01.255Z,5.00
2018-08-06T23:40:31.511Z,4.50
2018-08-06T23:43:01.952Z,7.50
2018-08-06T23:45:32.426Z,6.00
2018-08-06T23:48:04.830Z,6.50
2018-08-06T23:50:35.201Z,5.00
2018-08-06T23:53:06.536Z,6.00
2018-08-06T23:55:36.675Z,5.75
2018-08-06T23:58:07.345Z,6.00
